Terminal Aerodrome Forecast
Issued by NWS Jackson, KY

Home | Current Version | Previous Version | Text Only | Print | Product List | Glossary On
Versions: 1 2 3 4 5 6 7 8 9 10 11 12
000
FTUS43 KJKL 152300
TAFLOZ
TAF
KLOZ 152323Z 1600/1624 33008KT P6SM BKN040
     FM160300 VRB05KT P6SM SCT050
     FM160700 VRB03KT P6SM SKC=

USA.gov is the U.S. government's official web portal to all federal, state and local government web resources and services.